createdAt,value
2022-10-17T00:02:16.686Z,11.67
2022-10-17T00:04:43.044Z,11.64
2022-10-17T00:07:09.397Z,11.62
2022-10-17T00:09:35.753Z,11.58
2022-10-17T00:12:02.078Z,11.57
2022-10-17T00:14:28.407Z,11.62
2022-10-17T00:16:54.738Z,11.63
2022-10-17T00:19:21.072Z,11.66
2022-10-17T00:21:47.398Z,11.65
2022-10-17T00:24:13.729Z,11.66
2022-10-17T00:26:40.101Z,11.65
2022-10-17T00:29:06.505Z,11.65
2022-10-17T00:31:32.769Z,11.59
2022-10-17T00:33:59.147Z,11.58
2022-10-17T00:36:25.492Z,11.56
2022-10-17T00:38:51.818Z,11.49
2022-10-17T00:41:18.175Z,11.44
2022-10-17T00:43:44.494Z,11.39
2022-10-17T00:46:10.863Z,11.35
2022-10-17T00:48:37.192Z,11.29
2022-10-17T00:51:03.512Z,11.22
2022-10-17T00:53:29.893Z,11.27
2022-10-17T00:55:56.229Z,11.28
2022-10-17T00:58:22.576Z,11.24
2022-10-17T01:00:48.922Z,11.20
2022-10-17T01:03:15.254Z,11.15
2022-10-17T01:05:41.577Z,11.09
2022-10-17T01:08:07.925Z,11.04
2022-10-17T01:10:34.265Z,11.01
2022-10-17T01:13:00.657Z,10.98
2022-10-17T01:15:26.978Z,10.96
2022-10-17T01:17:53.367Z,10.93
2022-10-17T01:20:19.677Z,10.88
2022-10-17T01:22:46.004Z,10.84
2022-10-17T01:25:12.329Z,10.84
2022-10-17T01:27:38.727Z,10.81
2022-10-17T01:30:05.083Z,10.74
2022-10-17T01:32:31.410Z,10.69
2022-10-17T01:34:57.766Z,10.69
2022-10-17T01:37:24.112Z,10.69
2022-10-17T01:39:50.434Z,10.65
2022-10-17T01:42:16.827Z,10.60
2022-10-17T01:44:43.185Z,10.53
2022-10-17T01:47:09.516Z,10.48
2022-10-17T01:49:35.856Z,10.46
2022-10-17T01:52:02.206Z,10.50
2022-10-17T01:54:28.543Z,10.48
2022-10-17T01:56:54.868Z,10.47
2022-10-17T01:59:21.214Z,10.43
2022-10-17T02:01:47.588Z,10.39
2022-10-17T02:04:13.907Z,10.37
2022-10-17T02:06:40.236Z,10.41
2022-10-17T02:09:06.581Z,10.45
2022-10-17T02:11:32.923Z,10.43
2022-10-17T02:13:59.290Z,10.40
2022-10-17T02:16:25.597Z,10.39
2022-10-17T02:18:51.934Z,10.35
2022-10-17T02:21:18.288Z,10.28
2022-10-17T02:23:44.632Z,10.22
2022-10-17T02:26:10.972Z,10.19
2022-10-17T02:28:37.328Z,10.14
2022-10-17T02:31:03.636Z,10.08
2022-10-17T02:33:30.044Z,10.04
2022-10-17T02:35:56.398Z,10.01
2022-10-17T02:38:22.724Z,10.00
2022-10-17T02:40:49.065Z,9.98
2022-10-17T02:43:15.396Z,10.00
2022-10-17T02:45:41.756Z,9.97
2022-10-17T02:48:08.104Z,9.93
2022-10-17T02:50:34.451Z,9.88
2022-10-17T02:53:00.782Z,9.86
2022-10-17T02:55:27.145Z,9.84
2022-10-17T02:57:53.504Z,9.81
2022-10-17T03:00:19.852Z,9.81
2022-10-17T03:02:46.230Z,9.79
2022-10-17T03:05:12.543Z,9.74
2022-10-17T03:07:38.874Z,9.71
2022-10-17T03:10:05.233Z,9.68
2022-10-17T03:12:31.873Z,9.66
2022-10-17T03:14:57.879Z,9.62
2022-10-17T03:17:24.242Z,9.62
2022-10-17T03:19:50.578Z,9.61
2022-10-17T03:22:16.915Z,9.57
2022-10-17T03:24:43.269Z,9.57
2022-10-17T03:27:09.588Z,9.60
2022-10-17T03:29:35.930Z,9.59
2022-10-17T03:32:02.282Z,9.57
2022-10-17T03:34:28.600Z,9.55
2022-10-17T03:36:54.942Z,9.54
2022-10-17T03:39:21.302Z,9.53
2022-10-17T03:41:47.649Z,9.50
2022-10-17T03:44:14.009Z,9.46
2022-10-17T03:46:40.328Z,9.42
2022-10-17T03:49:06.686Z,9.42
2022-10-17T03:51:33.014Z,9.39
2022-10-17T03:53:59.337Z,9.35
2022-10-17T03:56:25.687Z,9.31
2022-10-17T03:58:52.012Z,9.26
2022-10-17T04:01:18.429Z,9.25
2022-10-17T04:03:44.674Z,9.23
2022-10-17T04:06:11.059Z,9.20
2022-10-17T04:08:37.394Z,9.17
2022-10-17T04:11:03.717Z,9.12
2022-10-17T04:13:30.078Z,9.12
2022-10-17T04:15:56.395Z,9.11
2022-10-17T04:18:22.719Z,9.08
2022-10-17T04:20:49.103Z,9.05
2022-10-17T04:23:15.443Z,9.05
2022-10-17T04:25:41.762Z,9.03
2022-10-17T04:28:08.121Z,9.02
2022-10-17T04:30:34.467Z,9.02
2022-10-17T04:33:00.811Z,9.01
2022-10-17T04:35:27.206Z,8.99
2022-10-17T04:37:53.527Z,8.97
2022-10-17T04:40:19.879Z,8.95
2022-10-17T04:42:46.216Z,8.93
2022-10-17T04:45:12.560Z,8.91
2022-10-17T04:47:38.880Z,8.89
2022-10-17T04:50:05.220Z,8.89
2022-10-17T04:52:31.816Z,8.90
2022-10-17T04:54:57.868Z,9.03
2022-10-17T04:57:24.190Z,9.20
2022-10-17T04:59:50.638Z,9.33
2022-10-17T05:02:16.913Z,9.42
2022-10-17T05:04:43.262Z,9.42
2022-10-17T05:07:09.607Z,9.47
2022-10-17T05:09:35.958Z,9.58
2022-10-17T05:12:04.330Z,9.66
2022-10-17T05:14:28.715Z,9.77
2022-10-17T05:16:55.060Z,9.88
2022-10-17T05:19:21.412Z,9.97
2022-10-17T05:21:47.764Z,10.13
2022-10-17T05:24:14.120Z,10.25
2022-10-17T05:26:40.435Z,10.39
2022-10-17T05:29:06.859Z,10.55
2022-10-17T05:31:33.176Z,10.69
2022-10-17T05:33:59.500Z,10.78
2022-10-17T05:36:25.889Z,10.90
2022-10-17T05:38:52.226Z,11.05
2022-10-17T05:41:18.576Z,11.24
2022-10-17T05:43:44.920Z,11.38
2022-10-17T05:46:11.262Z,11.56
2022-10-17T05:48:37.624Z,11.68
2022-10-17T05:51:03.950Z,11.74
2022-10-17T05:53:30.322Z,11.90
2022-10-17T05:55:56.670Z,12.04
2022-10-17T05:58:45.505Z,12.19
2022-10-17T06:00:49.337Z,12.36
2022-10-17T06:03:15.686Z,12.53
2022-10-17T06:05:42.013Z,12.73
2022-10-17T06:08:08.344Z,12.86
2022-10-17T06:10:34.692Z,13.02
2022-10-17T06:13:01.051Z,13.15
2022-10-17T06:15:27.385Z,13.34
2022-10-17T06:17:53.732Z,13.57
2022-10-17T06:20:20.092Z,13.81
2022-10-17T06:22:46.439Z,14.01
2022-10-17T06:25:12.751Z,14.16
2022-10-17T06:27:39.086Z,14.31
2022-10-17T06:30:05.433Z,14.47
2022-10-17T06:32:32.113Z,14.65
2022-10-17T06:34:58.113Z,14.75
2022-10-17T06:37:24.454Z,14.84
2022-10-17T06:39:50.832Z,14.97
2022-10-17T06:42:17.159Z,15.20
2022-10-17T06:44:43.488Z,15.45
2022-10-17T06:47:09.860Z,15.64
2022-10-17T06:49:36.182Z,15.80
2022-10-17T06:52:02.565Z,16.01
2022-10-17T06:54:28.891Z,16.24
2022-10-17T06:56:55.251Z,16.52
2022-10-17T06:59:21.607Z,16.75
2022-10-17T07:01:47.958Z,16.99
2022-10-17T07:04:14.276Z,17.19
2022-10-17T07:06:40.600Z,17.29
2022-10-17T07:09:06.975Z,17.20
2022-10-17T07:11:33.271Z,17.19
2022-10-17T07:13:59.594Z,17.24
2022-10-17T07:16:25.992Z,17.43
2022-10-17T07:18:52.317Z,17.62
2022-10-17T07:21:18.647Z,17.77
2022-10-17T07:23:45.016Z,17.90
2022-10-17T07:26:11.370Z,17.94
2022-10-17T07:28:37.731Z,18.02
2022-10-17T07:31:04.044Z,18.24
2022-10-17T07:33:30.362Z,18.41
2022-10-17T07:35:56.732Z,18.60
2022-10-17T07:38:23.074Z,18.90
2022-10-17T07:40:49.418Z,19.05
2022-10-17T07:43:15.734Z,19.18
2022-10-17T07:45:42.137Z,19.36
2022-10-17T07:48:08.461Z,19.62
2022-10-17T07:50:34.800Z,19.67
2022-10-17T07:53:01.162Z,19.72
2022-10-17T07:55:27.510Z,19.89
2022-10-17T07:57:53.834Z,19.88
2022-10-17T08:00:20.213Z,19.95
2022-10-17T08:02:46.551Z,20.32
2022-10-17T08:05:12.908Z,20.52
2022-10-17T08:07:39.312Z,20.81
2022-10-17T08:10:05.680Z,20.85
2022-10-17T08:12:32.527Z,20.96
2022-10-17T08:14:58.311Z,21.01
2022-10-17T08:17:24.639Z,21.03
2022-10-17T08:19:50.972Z,21.31
2022-10-17T08:22:17.310Z,21.61
2022-10-17T08:24:43.635Z,21.91
2022-10-17T08:27:09.975Z,22.18
2022-10-17T08:29:36.343Z,22.25
2022-10-17T08:32:05.431Z,22.54
2022-10-17T08:34:29.047Z,22.68
2022-10-17T08:36:55.414Z,22.80
2022-10-17T08:39:21.732Z,23.04
2022-10-17T08:41:48.058Z,23.32
2022-10-17T08:44:14.393Z,23.35
2022-10-17T08:46:40.800Z,23.47
2022-10-17T08:49:10.049Z,23.59
2022-10-17T08:51:33.527Z,23.79
2022-10-17T08:53:59.885Z,23.94
2022-10-17T08:56:44.117Z,24.16
2022-10-17T08:58:52.660Z,24.22
2022-10-17T09:01:18.978Z,24.41
2022-10-17T09:03:45.312Z,24.64
2022-10-17T09:06:11.649Z,24.83
2022-10-17T09:08:38.001Z,24.98
2022-10-17T09:11:04.341Z,25.13
2022-10-17T09:13:30.729Z,25.24
2022-10-17T09:15:57.015Z,25.14
2022-10-17T09:18:23.341Z,25.11
2022-10-17T09:20:49.695Z,24.84
2022-10-17T09:23:16.042Z,24.77
2022-10-17T09:25:42.386Z,24.97
2022-10-17T09:28:08.713Z,25.12
2022-10-17T09:30:50.027Z,25.30
2022-10-17T09:33:01.446Z,25.06
2022-10-17T09:35:27.769Z,25.40
2022-10-17T09:37:54.137Z,25.70
2022-10-17T09:40:20.468Z,26.13
2022-10-17T09:42:46.821Z,26.54
2022-10-17T09:45:13.142Z,26.77
2022-10-17T09:47:39.515Z,26.81
2022-10-17T09:50:05.858Z,26.76
2022-10-17T09:52:32.657Z,26.35
2022-10-17T09:54:58.554Z,26.20
2022-10-17T09:57:24.907Z,26.25
2022-10-17T09:59:51.259Z,26.27
2022-10-17T10:02:17.605Z,26.39
2022-10-17T10:05:03.313Z,26.16
2022-10-17T10:07:10.289Z,26.20
2022-10-17T10:09:39.354Z,26.34
2022-10-17T10:12:02.983Z,26.55
2022-10-17T10:14:29.346Z,26.68
2022-10-17T10:16:55.682Z,26.70
2022-10-17T10:19:22.031Z,26.72
2022-10-17T10:21:48.359Z,26.55
2022-10-17T10:24:14.702Z,26.61
2022-10-17T10:26:41.056Z,26.68
2022-10-17T10:29:07.431Z,26.64
2022-10-17T10:31:33.714Z,26.61
2022-10-17T10:34:00.048Z,26.72
2022-10-17T10:36:26.639Z,26.88
2022-10-17T10:38:52.841Z,26.90
2022-10-17T10:41:19.258Z,26.83
2022-10-17T10:43:45.581Z,26.58
2022-10-17T10:46:11.908Z,26.50
2022-10-17T10:48:38.267Z,26.80
2022-10-17T10:51:04.597Z,27.29
2022-10-17T10:53:34.959Z,27.35
2022-10-17T10:55:57.292Z,27.40
2022-10-17T10:58:23.648Z,27.51
2022-10-17T11:00:50.034Z,27.60
2022-10-17T11:03:16.307Z,27.77
2022-10-17T11:05:42.629Z,28.00
2022-10-17T11:08:08.956Z,28.22
2022-10-17T11:10:35.302Z,27.94
2022-10-17T11:13:01.713Z,27.84
2022-10-17T11:15:27.946Z,27.91
2022-10-17T11:17:54.298Z,27.98
2022-10-17T11:20:20.631Z,28.03
2022-10-17T11:22:46.955Z,28.18
2022-10-17T11:25:13.298Z,28.22
2022-10-17T11:27:39.620Z,28.15
2022-10-17T11:30:05.958Z,28.15
2022-10-17T11:32:32.540Z,28.13
2022-10-17T11:34:58.611Z,27.95
2022-10-17T11:37:24.947Z,27.80
2022-10-17T11:39:51.275Z,27.59
2022-10-17T11:42:17.603Z,27.58
2022-10-17T11:44:43.925Z,27.74
2022-10-17T11:47:10.283Z,27.86
2022-10-17T11:49:39.867Z,27.89
2022-10-17T11:52:03.477Z,27.80
2022-10-17T11:54:29.450Z,27.56
2022-10-17T11:56:55.616Z,27.65
2022-10-17T11:59:22.713Z,27.82
2022-10-17T12:01:49.248Z,27.86
2022-10-17T12:04:15.598Z,27.74
2022-10-17T12:06:41.890Z,27.82
2022-10-17T12:09:08.265Z,27.94
2022-10-17T12:11:34.595Z,27.98
2022-10-17T12:14:04.971Z,27.89
2022-10-17T12:16:27.248Z,27.78
2022-10-17T12:18:53.579Z,27.63
2022-10-17T12:21:19.902Z,27.56
2022-10-17T12:23:46.231Z,27.48
2022-10-17T12:26:12.550Z,27.34
2022-10-17T12:28:39.529Z,27.16
2022-10-17T12:31:05.240Z,27.08
2022-10-17T12:33:31.634Z,27.15
2022-10-17T12:35:57.918Z,27.08
2022-10-17T12:38:24.272Z,26.98
2022-10-17T12:40:50.610Z,26.82
2022-10-17T12:43:16.934Z,26.61
2022-10-17T12:45:43.288Z,26.55
2022-10-17T12:48:09.617Z,26.61
2022-10-17T12:50:38.053Z,26.71
2022-10-17T12:53:02.274Z,26.83
2022-10-17T12:55:28.632Z,26.89
2022-10-17T12:57:54.974Z,26.91
2022-10-17T13:00:21.280Z,26.97
2022-10-17T13:02:47.602Z,26.97
2022-10-17T13:05:13.969Z,26.90
2022-10-17T13:07:40.298Z,26.69
2022-10-17T13:10:06.692Z,26.63
2022-10-17T13:12:34.051Z,26.60
2022-10-17T13:14:59.292Z,26.57
2022-10-17T13:17:25.614Z,26.54
2022-10-17T13:19:51.943Z,26.47
2022-10-17T13:22:18.279Z,26.24
2022-10-17T13:24:44.679Z,26.16
2022-10-17T13:27:11.001Z,26.17
2022-10-17T13:29:37.345Z,26.17
2022-10-17T13:32:03.707Z,26.15
2022-10-17T13:34:30.041Z,26.18
2022-10-17T13:36:56.365Z,26.10
2022-10-17T13:39:32.557Z,25.98
2022-10-17T13:41:49.020Z,25.70
2022-10-17T13:44:15.356Z,25.43
2022-10-17T13:46:41.765Z,25.23
2022-10-17T13:49:08.115Z,25.13
2022-10-17T13:51:34.472Z,25.03
2022-10-17T13:54:00.799Z,25.06
2022-10-17T13:56:28.890Z,24.92
2022-10-17T13:58:53.462Z,24.80
2022-10-17T14:01:19.860Z,24.60
2022-10-17T14:03:48.623Z,24.47
2022-10-17T14:06:12.494Z,24.36
2022-10-17T14:08:38.814Z,24.29
2022-10-17T14:11:05.143Z,24.22
2022-10-17T14:13:31.468Z,24.12
2022-10-17T14:15:57.834Z,24.04
2022-10-17T14:18:24.165Z,23.95
2022-10-17T14:23:22.985Z,23.71
2022-10-17T14:25:43.139Z,23.61
2022-10-17T14:28:09.495Z,23.48
2022-10-17T14:30:55.752Z,23.32
2022-10-17T14:33:02.127Z,23.16
2022-10-17T14:35:41.553Z,23.05
2022-10-17T14:37:54.828Z,22.96
2022-10-17T14:40:21.166Z,22.86
2022-10-17T14:42:47.495Z,22.80
2022-10-17T14:45:13.832Z,22.74
2022-10-17T14:47:44.282Z,22.68
2022-10-17T14:50:06.626Z,22.58
2022-10-17T14:52:33.280Z,22.51
2022-10-17T14:54:59.286Z,22.39
2022-10-17T14:57:25.609Z,22.30
2022-10-17T14:59:54.620Z,22.21
2022-10-17T15:02:18.273Z,22.12
2022-10-17T15:04:44.661Z,22.04
2022-10-17T15:07:11.058Z,21.94
2022-10-17T15:09:37.306Z,21.89
2022-10-17T15:12:03.659Z,21.83
2022-10-17T15:14:29.996Z,21.67
2022-10-17T15:16:56.318Z,21.55
2022-10-17T15:19:22.666Z,21.46
2022-10-17T15:21:49.022Z,21.45
2022-10-17T15:24:15.342Z,21.28
2022-10-17T15:26:41.777Z,21.14
2022-10-17T15:29:08.041Z,21.03
2022-10-17T15:31:34.346Z,20.91
2022-10-17T15:34:00.720Z,20.82
2022-10-17T15:36:27.043Z,20.71
2022-10-17T15:38:53.363Z,20.69
2022-10-17T15:41:19.713Z,20.77
2022-10-17T15:43:46.086Z,20.62
2022-10-17T15:46:12.581Z,20.48
2022-10-17T15:48:38.751Z,20.38
2022-10-17T15:51:05.152Z,20.27
2022-10-17T15:53:31.512Z,20.18
2022-10-17T15:55:57.865Z,20.17
2022-10-17T15:58:24.215Z,20.13
2022-10-17T16:00:50.581Z,20.05
2022-10-17T16:03:16.975Z,20.03
2022-10-17T16:05:43.256Z,20.04
2022-10-17T16:08:09.601Z,19.88
2022-10-17T16:10:35.950Z,19.68
2022-10-17T16:13:02.270Z,19.65
2022-10-17T16:15:28.620Z,19.60
2022-10-17T16:17:54.945Z,19.59
2022-10-17T16:20:21.293Z,19.58
2022-10-17T16:22:47.643Z,19.56
2022-10-17T16:25:13.969Z,19.46
2022-10-17T16:27:40.309Z,19.50
2022-10-17T16:30:06.662Z,19.53
2022-10-17T16:32:33.086Z,19.52
2022-10-17T16:34:59.313Z,19.37
2022-10-17T16:37:25.667Z,19.32
2022-10-17T16:39:52.015Z,19.31
2022-10-17T16:42:18.354Z,19.33
2022-10-17T16:44:44.727Z,19.35
2022-10-17T16:47:11.042Z,19.32
2022-10-17T16:49:40.350Z,19.26
2022-10-17T16:52:03.718Z,19.20
2022-10-17T16:54:30.044Z,19.13
2022-10-17T16:56:56.484Z,19.07
2022-10-17T16:59:22.824Z,19.03
2022-10-17T17:01:49.146Z,19.03
2022-10-17T17:04:15.538Z,18.97
2022-10-17T17:06:41.926Z,18.93
2022-10-17T17:09:08.199Z,18.88
2022-10-17T17:11:34.524Z,18.83
2022-10-17T17:14:00.869Z,18.77
2022-10-17T17:16:27.208Z,18.72
2022-10-17T17:18:53.559Z,18.73
2022-10-17T17:21:19.920Z,18.69
2022-10-17T17:23:46.251Z,18.67
2022-10-17T17:26:12.588Z,18.65
2022-10-17T17:28:39.118Z,18.61
2022-10-17T17:31:05.334Z,18.58
2022-10-17T17:33:31.678Z,18.54
2022-10-17T17:35:58.020Z,18.45
2022-10-17T17:38:24.386Z,18.37
2022-10-17T17:40:51.215Z,18.30
2022-10-17T17:43:17.076Z,18.22
2022-10-17T17:45:43.430Z,18.17
2022-10-17T17:48:09.779Z,18.07
2022-10-17T17:50:36.118Z,17.99
2022-10-17T17:53:02.480Z,17.94
2022-10-17T17:55:28.803Z,17.86
2022-10-17T17:57:55.177Z,17.74
2022-10-17T18:00:21.508Z,17.71
2022-10-17T18:02:47.837Z,17.65
2022-10-17T18:05:14.190Z,17.60
2022-10-17T18:07:40.507Z,17.54
2022-10-17T18:10:06.954Z,17.55
2022-10-17T18:12:33.254Z,17.62
2022-10-17T18:14:59.573Z,17.54
2022-10-17T18:17:25.960Z,17.43
2022-10-17T18:19:52.277Z,17.36
2022-10-17T18:22:18.629Z,17.34
2022-10-17T18:24:45.056Z,17.28
2022-10-17T18:27:11.379Z,17.28
2022-10-17T18:29:37.702Z,17.33
2022-10-17T18:32:04.066Z,17.31
2022-10-17T18:34:30.404Z,17.31
2022-10-17T18:36:56.742Z,17.30
2022-10-17T18:39:23.080Z,17.19
2022-10-17T18:41:49.427Z,17.04
2022-10-17T18:44:15.752Z,16.87
2022-10-17T18:46:42.148Z,16.80
2022-10-17T18:49:08.483Z,16.78
2022-10-17T18:51:34.809Z,16.71
2022-10-17T18:54:01.141Z,16.66
2022-10-17T18:56:27.479Z,16.62
2022-10-17T18:58:53.842Z,16.61
2022-10-17T19:01:20.289Z,16.58
2022-10-17T19:03:46.520Z,16.63
2022-10-17T19:06:12.883Z,16.65
2022-10-17T19:08:39.236Z,16.67
2022-10-17T19:11:05.581Z,16.65
2022-10-17T19:13:31.988Z,16.65
2022-10-17T19:15:58.282Z,16.61
2022-10-17T19:18:24.628Z,16.56
2022-10-17T19:20:50.957Z,16.54
2022-10-17T19:23:17.282Z,16.41
2022-10-17T19:25:43.658Z,16.28
2022-10-17T19:28:10.004Z,16.21
2022-10-17T19:30:36.349Z,16.19
2022-10-17T19:33:02.743Z,16.14
2022-10-17T19:35:29.092Z,16.08
2022-10-17T19:37:55.411Z,16.05
2022-10-17T19:40:21.736Z,16.01
2022-10-17T19:42:48.064Z,16.04
2022-10-17T19:45:14.418Z,16.10
2022-10-17T19:47:40.805Z,16.14
2022-10-17T19:50:07.135Z,16.12
2022-10-17T19:52:33.784Z,16.01
2022-10-17T19:54:59.846Z,15.92
2022-10-17T19:57:26.165Z,15.77
2022-10-17T19:59:55.725Z,15.61
2022-10-17T20:02:18.805Z,15.49
2022-10-17T20:04:54.510Z,15.48
2022-10-17T20:07:11.561Z,15.50
2022-10-17T20:09:37.847Z,15.51
2022-10-17T20:12:04.163Z,15.38
2022-10-17T20:14:30.498Z,15.28
2022-10-17T20:16:56.858Z,15.20
2022-10-17T20:19:23.160Z,15.15
2022-10-17T20:21:49.485Z,15.08
2022-10-17T20:24:15.871Z,15.00
2022-10-17T20:26:42.209Z,14.95
2022-10-17T20:29:08.859Z,14.96
2022-10-17T20:31:34.904Z,14.97
2022-10-17T20:34:01.248Z,14.90
2022-10-17T20:36:27.576Z,14.86
2022-10-17T20:38:53.965Z,14.79
2022-10-17T20:41:20.305Z,14.73
2022-10-17T20:43:46.651Z,14.71
2022-10-17T20:46:29.508Z,14.66
2022-10-17T20:48:39.344Z,14.64
2022-10-17T20:51:05.716Z,14.67
2022-10-17T20:53:36.974Z,14.66
2022-10-17T20:55:58.418Z,14.64
2022-10-17T20:58:24.753Z,14.52
2022-10-17T21:00:51.132Z,14.42
2022-10-17T21:03:17.460Z,14.39
2022-10-17T21:05:43.781Z,14.39
2022-10-17T21:08:10.141Z,14.43
2022-10-17T21:10:36.695Z,14.39
2022-10-17T21:13:03.049Z,14.34
2022-10-17T21:15:29.414Z,14.28
2022-10-17T21:17:55.759Z,14.26
2022-10-17T21:20:22.101Z,14.16
2022-10-17T21:22:48.450Z,14.14
2022-10-17T21:25:14.812Z,14.10
2022-10-17T21:27:41.140Z,14.13
2022-10-17T21:32:51.232Z,14.08
2022-10-17T21:35:00.165Z,14.01
2022-10-17T21:37:26.492Z,14.00
2022-10-17T21:39:52.806Z,13.94
2022-10-17T21:42:19.185Z,13.87
2022-10-17T21:44:45.525Z,13.80
2022-10-17T21:47:11.855Z,13.71
2022-10-17T21:49:38.217Z,13.73
2022-10-17T21:52:04.541Z,13.67
2022-10-17T21:54:30.881Z,13.54
2022-10-17T21:56:57.255Z,13.49
2022-10-17T21:59:23.593Z,13.45
2022-10-17T22:01:49.957Z,13.45
2022-10-17T22:04:16.289Z,13.43
2022-10-17T22:06:42.671Z,13.45
2022-10-17T22:09:08.949Z,13.43
2022-10-17T22:11:35.287Z,13.41
2022-10-17T22:14:01.660Z,13.36
2022-10-17T22:16:27.986Z,13.31
2022-10-17T22:18:54.308Z,13.26
2022-10-17T22:21:20.681Z,13.16
2022-10-17T22:23:47.019Z,13.13
2022-10-17T22:26:13.348Z,13.09
2022-10-17T22:28:39.766Z,13.08
2022-10-17T22:31:06.082Z,13.02
2022-10-17T22:33:32.421Z,13.01
2022-10-17T22:35:58.751Z,12.99
2022-10-17T22:38:25.095Z,12.92
2022-10-17T22:40:51.444Z,12.93
2022-10-17T22:43:17.784Z,12.91
2022-10-17T22:45:44.130Z,12.95
2022-10-17T22:48:10.508Z,12.97
2022-10-17T22:50:36.860Z,12.94
2022-10-17T22:53:03.205Z,12.92
2022-10-17T22:55:29.548Z,12.81
2022-10-17T22:57:55.885Z,12.72
2022-10-17T23:00:22.248Z,12.64
2022-10-17T23:02:48.548Z,12.63
2022-10-17T23:05:14.887Z,12.64
2022-10-17T23:07:41.227Z,12.67
2022-10-17T23:10:07.601Z,12.69
2022-10-17T23:12:33.947Z,12.69
2022-10-17T23:15:00.302Z,12.64
2022-10-17T23:17:26.656Z,12.54
2022-10-17T23:19:55.562Z,12.53
2022-10-17T23:22:19.314Z,12.49
2022-10-17T23:24:45.665Z,12.44
2022-10-17T23:27:12.017Z,12.45
2022-10-17T23:29:38.344Z,12.39
2022-10-17T23:32:04.694Z,12.27
2022-10-17T23:34:31.032Z,12.24
2022-10-17T23:36:57.375Z,12.22
2022-10-17T23:39:23.740Z,12.19
2022-10-17T23:41:50.084Z,12.15
2022-10-17T23:44:16.428Z,12.16
2022-10-17T23:46:42.781Z,12.14
2022-10-17T23:49:09.120Z,12.06
2022-10-17T23:51:35.466Z,12.00
2022-10-17T23:54:01.808Z,11.99
2022-10-17T23:56:28.148Z,11.94
2022-10-17T23:58:54.485Z,11.92
